sensor_id;sensor_type;location;lat;lon;timestamp;temperature;humidity
10468;DHT22;5281;48.878;9.394;2023-10-19T00:02:07;13.30;99.90
10468;DHT22;5281;48.878;9.394;2023-10-19T00:04:32;13.30;99.90
10468;DHT22;5281;48.878;9.394;2023-10-19T00:07:01;13.20;99.90
10468;DHT22;5281;48.878;9.394;2023-10-19T00:09:26;13.10;99.90
10468;DHT22;5281;48.878;9.394;2023-10-19T00:12:04;13.30;99.90
10468;DHT22;5281;48.878;9.394;2023-10-19T00:14:32;13.40;99.90
10468;DHT22;5281;48.878;9.394;2023-10-19T00:16:58;13.40;99.90
10468;DHT22;5281;48.878;9.394;2023-10-19T00:19:26;13.40;99.90
10468;DHT22;5281;48.878;9.394;2023-10-19T00:21:54;13.50;99.90
10468;DHT22;5281;48.878;9.394;2023-10-19T00:24:21;13.40;99.90
10468;DHT22;5281;48.878;9.394;2023-10-19T00:26:48;13.40;99.90
10468;DHT22;5281;48.878;9.394;2023-10-19T00:29:20;13.30;99.90
10468;DHT22;5281;48.878;9.394;2023-10-19T00:31:56;13.20;99.90
10468;DHT22;5281;48.878;9.394;2023-10-19T00:34:25;13.10;99.90
10468;DHT22;5281;48.878;9.394;2023-10-19T00:36:54;13.10;99.90
10468;DHT22;5281;48.878;9.394;2023-10-19T00:39:21;13.10;99.90
10468;DHT22;5281;48.878;9.394;2023-10-19T00:41:49;13.20;99.90
10468;DHT22;5281;48.878;9.394;2023-10-19T00:44:22;13.40;99.90
10468;DHT22;5281;48.878;9.394;2023-10-19T00:46:54;13.50;99.90
10468;DHT22;5281;48.878;9.394;2023-10-19T00:49:28;13.70;99.90
10468;DHT22;5281;48.878;9.394;2023-10-19T00:51:57;13.70;99.90
10468;DHT22;5281;48.878;9.394;2023-10-19T00:54:30;13.80;99.90
10468;DHT22;5281;48.878;9.394;2023-10-19T00:56:59;13.90;99.90
10468;DHT22;5281;48.878;9.394;2023-10-19T00:59:31;14.10;99.90
10468;DHT22;5281;48.878;9.394;2023-10-19T01:02:01;14.20;99.90
10468;DHT22;5281;48.878;9.394;2023-10-19T01:04:42;14.20;99.90
10468;DHT22;5281;48.878;9.394;2023-10-19T01:07:11;14.20;99.90
10468;DHT22;5281;48.878;9.394;2023-10-19T01:09:42;14.30;99.90
10468;DHT22;5281;48.878;9.394;2023-10-19T01:12:10;14.40;99.90
10468;DHT22;5281;48.878;9.394;2023-10-19T01:15:07;14.60;99.90
10468;DHT22;5281;48.878;9.394;2023-10-19T01:17:35;14.70;99.90
10468;DHT22;5281;48.878;9.394;2023-10-19T01:20:07;14.90;99.90
10468;DHT22;5281;48.878;9.394;2023-10-19T01:22:49;15.00;99.90
10468;DHT22;5281;48.878;9.394;2023-10-19T01:25:19;15.10;99.90
10468;DHT22;5281;48.878;9.394;2023-10-19T01:27:50;15.20;99.90
10468;DHT22;5281;48.878;9.394;2023-10-19T01:30:23;15.30;99.90
10468;DHT22;5281;48.878;9.394;2023-10-19T01:32:49;15.50;99.90
10468;DHT22;5281;48.878;9.394;2023-10-19T01:35:17;15.50;99.90
10468;DHT22;5281;48.878;9.394;2023-10-19T01:37:45;15.60;99.90
10468;DHT22;5281;48.878;9.394;2023-10-19T01:40:11;15.70;99.90
10468;DHT22;5281;48.878;9.394;2023-10-19T01:42:41;15.80;99.90
10468;DHT22;5281;48.878;9.394;2023-10-19T01:45:08;15.90;99.90
10468;DHT22;5281;48.878;9.394;2023-10-19T01:47:36;16.00;99.90
10468;DHT22;5281;48.878;9.394;2023-10-19T01:50:02;16.00;99.90
10468;DHT22;5281;48.878;9.394;2023-10-19T01:52:31;16.20;99.90
10468;DHT22;5281;48.878;9.394;2023-10-19T01:54:58;16.30;99.90
10468;DHT22;5281;48.878;9.394;2023-10-19T01:57:33;16.30;99.90
10468;DHT22;5281;48.878;9.394;2023-10-19T02:00:00;16.40;99.90
10468;DHT22;5281;48.878;9.394;2023-10-19T02:02:35;16.40;99.90
10468;DHT22;5281;48.878;9.394;2023-10-19T02:05:00;16.50;99.90
10468;DHT22;5281;48.878;9.394;2023-10-19T02:07:35;16.60;99.90
10468;DHT22;5281;48.878;9.394;2023-10-19T02:10:02;16.60;99.90
10468;DHT22;5281;48.878;9.394;2023-10-19T02:12:30;16.80;99.90
10468;DHT22;5281;48.878;9.394;2023-10-19T02:14:59;16.90;99.90
10468;DHT22;5281;48.878;9.394;2023-10-19T02:17:26;16.90;99.90
10468;DHT22;5281;48.878;9.394;2023-10-19T02:19:52;16.80;99.90
10468;DHT22;5281;48.878;9.394;2023-10-19T02:22:19;16.80;99.90
10468;DHT22;5281;48.878;9.394;2023-10-19T02:24:46;16.60;99.90
10468;DHT22;5281;48.878;9.394;2023-10-19T02:27:13;16.70;99.90
10468;DHT22;5281;48.878;9.394;2023-10-19T02:29:40;16.50;99.90
10468;DHT22;5281;48.878;9.394;2023-10-19T02:32:06;16.40;99.90
10468;DHT22;5281;48.878;9.394;2023-10-19T02:34:33;16.30;99.90
10468;DHT22;5281;48.878;9.394;2023-10-19T02:37:00;16.10;99.90
10468;DHT22;5281;48.878;9.394;2023-10-19T02:39:27;16.00;99.90
10468;DHT22;5281;48.878;9.394;2023-10-19T02:41:53;15.90;99.90
10468;DHT22;5281;48.878;9.394;2023-10-19T02:44:23;15.80;99.90
10468;DHT22;5281;48.878;9.394;2023-10-19T02:46:52;15.80;99.90
10468;DHT22;5281;48.878;9.394;2023-10-19T02:49:24;15.90;99.90
10468;DHT22;5281;48.878;9.394;2023-10-19T02:51:52;15.90;99.90
10468;DHT22;5281;48.878;9.394;2023-10-19T02:54:20;15.90;99.90
10468;DHT22;5281;48.878;9.394;2023-10-19T02:56:49;15.90;99.90
10468;DHT22;5281;48.878;9.394;2023-10-19T02:59:18;15.90;99.90
10468;DHT22;5281;48.878;9.394;2023-10-19T03:01:49;15.90;99.90
10468;DHT22;5281;48.878;9.394;2023-10-19T03:04:17;15.90;99.90
10468;DHT22;5281;48.878;9.394;2023-10-19T03:06:43;16.00;99.90
10468;DHT22;5281;48.878;9.394;2023-10-19T03:09:10;16.00;99.90
10468;DHT22;5281;48.878;9.394;2023-10-19T03:11:39;15.60;99.90
10468;DHT22;5281;48.878;9.394;2023-10-19T03:14:07;16.00;99.90
10468;DHT22;5281;48.878;9.394;2023-10-19T03:16:34;16.00;99.90
10468;DHT22;5281;48.878;9.394;2023-10-19T03:19:02;15.90;99.90
10468;DHT22;5281;48.878;9.394;2023-10-19T03:21:29;15.70;99.90
10468;DHT22;5281;48.878;9.394;2023-10-19T03:23:59;15.60;99.90
10468;DHT22;5281;48.878;9.394;2023-10-19T03:26:27;15.50;99.90
10468;DHT22;5281;48.878;9.394;2023-10-19T03:29:02;15.30;99.90
10468;DHT22;5281;48.878;9.394;2023-10-19T03:31:33;15.40;99.90
10468;DHT22;5281;48.878;9.394;2023-10-19T03:34:04;15.30;99.90
10468;DHT22;5281;48.878;9.394;2023-10-19T03:36:31;15.10;99.90
10468;DHT22;5281;48.878;9.394;2023-10-19T03:38:58;15.00;99.90
10468;DHT22;5281;48.878;9.394;2023-10-19T03:41:37;14.80;99.90
10468;DHT22;5281;48.878;9.394;2023-10-19T03:44:05;14.70;99.90
10468;DHT22;5281;48.878;9.394;2023-10-19T03:46:38;14.60;99.90
10468;DHT22;5281;48.878;9.394;2023-10-19T03:49:20;14.50;99.90
10468;DHT22;5281;48.878;9.394;2023-10-19T03:51:48;14.40;99.90
10468;DHT22;5281;48.878;9.394;2023-10-19T03:54:26;14.30;99.90
10468;DHT22;5281;48.878;9.394;2023-10-19T03:56:53;14.30;99.90
10468;DHT22;5281;48.878;9.394;2023-10-19T03:59:21;14.40;99.90
10468;DHT22;5281;48.878;9.394;2023-10-19T04:01:48;14.40;99.90
10468;DHT22;5281;48.878;9.394;2023-10-19T04:04:15;14.30;99.90
10468;DHT22;5281;48.878;9.394;2023-10-19T04:06:43;14.30;99.90
10468;DHT22;5281;48.878;9.394;2023-10-19T04:09:13;14.20;99.90
10468;DHT22;5281;48.878;9.394;2023-10-19T04:11:43;14.20;99.90
10468;DHT22;5281;48.878;9.394;2023-10-19T04:14:15;14.10;99.90
10468;DHT22;5281;48.878;9.394;2023-10-19T04:16:42;14.10;99.90
10468;DHT22;5281;48.878;9.394;2023-10-19T04:19:09;14.10;99.90
10468;DHT22;5281;48.878;9.394;2023-10-19T04:21:36;14.10;99.90
10468;DHT22;5281;48.878;9.394;2023-10-19T04:24:06;14.10;99.90
10468;DHT22;5281;48.878;9.394;2023-10-19T04:26:35;14.10;99.90
10468;DHT22;5281;48.878;9.394;2023-10-19T04:29:03;14.00;99.90
10468;DHT22;5281;48.878;9.394;2023-10-19T04:31:36;14.00;99.90
10468;DHT22;5281;48.878;9.394;2023-10-19T04:34:13;14.00;99.90
10468;DHT22;5281;48.878;9.394;2023-10-19T04:36:39;14.00;99.90
10468;DHT22;5281;48.878;9.394;2023-10-19T04:39:09;14.00;99.90
10468;DHT22;5281;48.878;9.394;2023-10-19T04:41:39;13.90;99.90
10468;DHT22;5281;48.878;9.394;2023-10-19T04:44:06;13.90;99.90
10468;DHT22;5281;48.878;9.394;2023-10-19T04:46:33;14.00;99.90
10468;DHT22;5281;48.878;9.394;2023-10-19T04:49:00;14.00;99.90
10468;DHT22;5281;48.878;9.394;2023-10-19T04:51:27;14.10;99.90
10468;DHT22;5281;48.878;9.394;2023-10-19T04:53:54;14.20;99.90
10468;DHT22;5281;48.878;9.394;2023-10-19T04:56:22;14.30;99.90
10468;DHT22;5281;48.878;9.394;2023-10-19T04:58:49;14.40;99.90
10468;DHT22;5281;48.878;9.394;2023-10-19T05:01:16;14.50;99.90
10468;DHT22;5281;48.878;9.394;2023-10-19T05:03:42;14.50;99.90
10468;DHT22;5281;48.878;9.394;2023-10-19T05:06:09;14.60;99.90
10468;DHT22;5281;48.878;9.394;2023-10-19T05:08:37;14.60;99.90
10468;DHT22;5281;48.878;9.394;2023-10-19T05:11:04;14.60;99.90
10468;DHT22;5281;48.878;9.394;2023-10-19T05:13:32;14.50;99.90
10468;DHT22;5281;48.878;9.394;2023-10-19T05:15:59;14.50;99.90
10468;DHT22;5281;48.878;9.394;2023-10-19T05:18:26;14.40;99.90
10468;DHT22;5281;48.878;9.394;2023-10-19T05:20:53;14.30;99.90
10468;DHT22;5281;48.878;9.394;2023-10-19T05:23:22;14.20;99.90
10468;DHT22;5281;48.878;9.394;2023-10-19T05:25:50;14.20;99.90
10468;DHT22;5281;48.878;9.394;2023-10-19T05:28:18;14.20;99.90
10468;DHT22;5281;48.878;9.394;2023-10-19T05:30:46;14.10;99.90
10468;DHT22;5281;48.878;9.394;2023-10-19T05:33:14;14.10;99.90
10468;DHT22;5281;48.878;9.394;2023-10-19T05:35:41;14.10;99.90
10468;DHT22;5281;48.878;9.394;2023-10-19T05:38:09;14.00;99.90
10468;DHT22;5281;48.878;9.394;2023-10-19T05:40:35;14.00;99.90
10468;DHT22;5281;48.878;9.394;2023-10-19T05:43:05;13.90;99.90
10468;DHT22;5281;48.878;9.394;2023-10-19T05:45:33;13.90;99.90
10468;DHT22;5281;48.878;9.394;2023-10-19T05:48:03;13.90;99.90
10468;DHT22;5281;48.878;9.394;2023-10-19T05:50:32;13.90;99.90
10468;DHT22;5281;48.878;9.394;2023-10-19T05:52:58;13.90;99.90
10468;DHT22;5281;48.878;9.394;2023-10-19T05:55:25;13.90;99.90
10468;DHT22;5281;48.878;9.394;2023-10-19T05:57:52;13.90;99.90
10468;DHT22;5281;48.878;9.394;2023-10-19T06:00:18;13.90;99.90
10468;DHT22;5281;48.878;9.394;2023-10-19T06:02:48;13.90;99.90
10468;DHT22;5281;48.878;9.394;2023-10-19T06:05:17;13.80;99.90
10468;DHT22;5281;48.878;9.394;2023-10-19T06:07:45;13.90;99.90
10468;DHT22;5281;48.878;9.394;2023-10-19T06:10:14;13.90;99.90
10468;DHT22;5281;48.878;9.394;2023-10-19T06:12:42;14.00;99.90
10468;DHT22;5281;48.878;9.394;2023-10-19T06:15:10;14.10;99.90
10468;DHT22;5281;48.878;9.394;2023-10-19T06:17:38;14.20;99.90
10468;DHT22;5281;48.878;9.394;2023-10-19T06:20:06;14.20;99.90
10468;DHT22;5281;48.878;9.394;2023-10-19T06:22:35;14.10;99.90
10468;DHT22;5281;48.878;9.394;2023-10-19T06:25:02;14.00;99.90
10468;DHT22;5281;48.878;9.394;2023-10-19T06:27:31;14.00;99.90
10468;DHT22;5281;48.878;9.394;2023-10-19T06:29:57;13.90;99.90
10468;DHT22;5281;48.878;9.394;2023-10-19T06:32:24;14.00;99.90
10468;DHT22;5281;48.878;9.394;2023-10-19T06:34:52;14.00;99.90
10468;DHT22;5281;48.878;9.394;2023-10-19T06:37:19;14.10;99.90
10468;DHT22;5281;48.878;9.394;2023-10-19T06:39:47;14.20;99.90
10468;DHT22;5281;48.878;9.394;2023-10-19T06:42:16;14.40;99.90
10468;DHT22;5281;48.878;9.394;2023-10-19T06:44:43;14.50;99.90
10468;DHT22;5281;48.878;9.394;2023-10-19T06:47:09;14.60;99.90
10468;DHT22;5281;48.878;9.394;2023-10-19T06:49:39;14.70;99.90
10468;DHT22;5281;48.878;9.394;2023-10-19T06:52:05;14.80;99.90
10468;DHT22;5281;48.878;9.394;2023-10-19T06:54:32;14.90;99.90
10468;DHT22;5281;48.878;9.394;2023-10-19T06:57:00;14.90;99.90
10468;DHT22;5281;48.878;9.394;2023-10-19T06:59:29;15.00;99.90
10468;DHT22;5281;48.878;9.394;2023-10-19T07:01:58;15.20;99.90
10468;DHT22;5281;48.878;9.394;2023-10-19T07:04:27;15.40;99.90
10468;DHT22;5281;48.878;9.394;2023-10-19T07:06:54;15.50;99.90
10468;DHT22;5281;48.878;9.394;2023-10-19T07:09:21;15.60;99.90
10468;DHT22;5281;48.878;9.394;2023-10-19T07:11:48;15.70;99.90
10468;DHT22;5281;48.878;9.394;2023-10-19T07:14:20;15.80;99.90
10468;DHT22;5281;48.878;9.394;2023-10-19T07:16:48;15.80;99.90
10468;DHT22;5281;48.878;9.394;2023-10-19T07:19:14;15.80;99.90
10468;DHT22;5281;48.878;9.394;2023-10-19T07:21:41;15.90;99.90
10468;DHT22;5281;48.878;9.394;2023-10-19T07:24:09;15.90;99.90
10468;DHT22;5281;48.878;9.394;2023-10-19T07:26:36;16.00;99.90
10468;DHT22;5281;48.878;9.394;2023-10-19T07:29:20;15.90;99.90
10468;DHT22;5281;48.878;9.394;2023-10-19T07:31:46;16.00;99.90
10468;DHT22;5281;48.878;9.394;2023-10-19T07:34:13;16.00;99.90
10468;DHT22;5281;48.878;9.394;2023-10-19T07:36:41;15.90;99.90
10468;DHT22;5281;48.878;9.394;2023-10-19T07:39:08;15.90;99.90
10468;DHT22;5281;48.878;9.394;2023-10-19T07:41:39;15.90;99.90
10468;DHT22;5281;48.878;9.394;2023-10-19T07:44:06;16.00;99.90
10468;DHT22;5281;48.878;9.394;2023-10-19T07:46:34;16.10;99.90
10468;DHT22;5281;48.878;9.394;2023-10-19T07:49:01;16.20;99.90
10468;DHT22;5281;48.878;9.394;2023-10-19T07:51:29;16.30;99.90
10468;DHT22;5281;48.878;9.394;2023-10-19T07:53:56;16.40;99.90
10468;DHT22;5281;48.878;9.394;2023-10-19T07:56:23;16.40;99.90
10468;DHT22;5281;48.878;9.394;2023-10-19T07:58:50;16.50;99.90
10468;DHT22;5281;48.878;9.394;2023-10-19T08:01:16;16.70;99.90
10468;DHT22;5281;48.878;9.394;2023-10-19T08:03:44;16.70;99.90
10468;DHT22;5281;48.878;9.394;2023-10-19T08:06:11;16.90;99.90
10468;DHT22;5281;48.878;9.394;2023-10-19T08:08:38;16.90;99.90
10468;DHT22;5281;48.878;9.394;2023-10-19T08:11:05;16.90;99.90
10468;DHT22;5281;48.878;9.394;2023-10-19T08:13:32;16.90;99.90
10468;DHT22;5281;48.878;9.394;2023-10-19T08:15:58;17.00;99.90
10468;DHT22;5281;48.878;9.394;2023-10-19T08:18:25;17.20;99.90
10468;DHT22;5281;48.878;9.394;2023-10-19T08:20:54;17.40;99.90
10468;DHT22;5281;48.878;9.394;2023-10-19T08:23:21;17.60;99.90
10468;DHT22;5281;48.878;9.394;2023-10-19T08:25:52;17.80;99.90
10468;DHT22;5281;48.878;9.394;2023-10-19T08:28:20;18.00;99.90
10468;DHT22;5281;48.878;9.394;2023-10-19T08:30:48;18.10;99.90
10468;DHT22;5281;48.878;9.394;2023-10-19T08:33:22;18.20;99.90
10468;DHT22;5281;48.878;9.394;2023-10-19T08:35:53;18.30;99.90
10468;DHT22;5281;48.878;9.394;2023-10-19T08:38:20;18.40;99.90
10468;DHT22;5281;48.878;9.394;2023-10-19T08:40:48;18.50;99.90
10468;DHT22;5281;48.878;9.394;2023-10-19T08:43:16;18.60;99.90
10468;DHT22;5281;48.878;9.394;2023-10-19T08:45:44;18.60;99.90
10468;DHT22;5281;48.878;9.394;2023-10-19T08:48:11;18.60;99.90
10468;DHT22;5281;48.878;9.394;2023-10-19T08:50:38;18.60;99.90
10468;DHT22;5281;48.878;9.394;2023-10-19T08:53:07;18.70;99.90
10468;DHT22;5281;48.878;9.394;2023-10-19T08:55:35;18.70;99.90
10468;DHT22;5281;48.878;9.394;2023-10-19T08:58:02;18.60;99.90
10468;DHT22;5281;48.878;9.394;2023-10-19T09:00:43;18.60;99.90
10468;DHT22;5281;48.878;9.394;2023-10-19T09:03:12;18.60;99.90
10468;DHT22;5281;48.878;9.394;2023-10-19T09:05:39;18.60;99.90
10468;DHT22;5281;48.878;9.394;2023-10-19T09:08:08;18.50;99.90
10468;DHT22;5281;48.878;9.394;2023-10-19T09:10:35;18.30;99.90
10468;DHT22;5281;48.878;9.394;2023-10-19T09:13:03;18.30;99.90
10468;DHT22;5281;48.878;9.394;2023-10-19T09:15:34;18.30;99.90
10468;DHT22;5281;48.878;9.394;2023-10-19T09:18:12;18.20;99.90
10468;DHT22;5281;48.878;9.394;2023-10-19T09:20:41;18.10;99.90
10468;DHT22;5281;48.878;9.394;2023-10-19T09:23:14;18.00;99.90
10468;DHT22;5281;48.878;9.394;2023-10-19T09:25:41;18.00;99.90
10468;DHT22;5281;48.878;9.394;2023-10-19T09:28:08;18.10;99.90
10468;DHT22;5281;48.878;9.394;2023-10-19T09:30:36;18.30;99.90
10468;DHT22;5281;48.878;9.394;2023-10-19T09:33:04;18.20;99.90
10468;DHT22;5281;48.878;9.394;2023-10-19T09:35:33;18.80;99.90
10468;DHT22;5281;48.878;9.394;2023-10-19T09:38:03;19.00;99.90
10468;DHT22;5281;48.878;9.394;2023-10-19T09:40:33;19.20;99.90
10468;DHT22;5281;48.878;9.394;2023-10-19T09:43:03;19.30;99.90
10468;DHT22;5281;48.878;9.394;2023-10-19T09:45:32;19.40;99.90
10468;DHT22;5281;48.878;9.394;2023-10-19T09:48:02;19.50;99.90
10468;DHT22;5281;48.878;9.394;2023-10-19T09:50:31;19.60;99.90
10468;DHT22;5281;48.878;9.394;2023-10-19T09:52:59;19.70;99.90
10468;DHT22;5281;48.878;9.394;2023-10-19T09:55:36;19.80;99.90
10468;DHT22;5281;48.878;9.394;2023-10-19T09:58:09;19.90;99.90
10468;DHT22;5281;48.878;9.394;2023-10-19T10:00:43;19.90;99.90
10468;DHT22;5281;48.878;9.394;2023-10-19T10:03:44;19.80;99.90
10468;DHT22;5281;48.878;9.394;2023-10-19T10:06:11;19.90;99.90
10468;DHT22;5281;48.878;9.394;2023-10-19T10:08:40;19.90;99.90
10468;DHT22;5281;48.878;9.394;2023-10-19T10:11:21;19.90;99.90
10468;DHT22;5281;48.878;9.394;2023-10-19T10:13:50;19.90;99.90
10468;DHT22;5281;48.878;9.394;2023-10-19T10:16:18;20.10;99.90
10468;DHT22;5281;48.878;9.394;2023-10-19T10:18:49;20.30;99.90
10468;DHT22;5281;48.878;9.394;2023-10-19T10:21:18;20.50;99.90
10468;DHT22;5281;48.878;9.394;2023-10-19T10:23:48;20.70;99.90
10468;DHT22;5281;48.878;9.394;2023-10-19T10:26:16;20.60;99.90
10468;DHT22;5281;48.878;9.394;2023-10-19T10:28:46;20.50;99.90
10468;DHT22;5281;48.878;9.394;2023-10-19T10:31:20;20.80;99.90
10468;DHT22;5281;48.878;9.394;2023-10-19T10:33:48;20.90;99.90
10468;DHT22;5281;48.878;9.394;2023-10-19T10:36:18;21.10;99.90
10468;DHT22;5281;48.878;9.394;2023-10-19T10:38:45;21.20;99.90
10468;DHT22;5281;48.878;9.394;2023-10-19T10:41:14;21.20;99.90
10468;DHT22;5281;48.878;9.394;2023-10-19T10:43:49;21.30;99.90
10468;DHT22;5281;48.878;9.394;2023-10-19T10:46:20;21.30;99.90
10468;DHT22;5281;48.878;9.394;2023-10-19T10:48:47;21.20;99.90
10468;DHT22;5281;48.878;9.394;2023-10-19T10:51:16;21.10;99.90
10468;DHT22;5281;48.878;9.394;2023-10-19T10:53:42;21.10;99.90
10468;DHT22;5281;48.878;9.394;2023-10-19T10:56:09;21.30;99.90
10468;DHT22;5281;48.878;9.394;2023-10-19T10:58:36;21.50;99.90
10468;DHT22;5281;48.878;9.394;2023-10-19T11:01:02;21.60;99.90
10468;DHT22;5281;48.878;9.394;2023-10-19T11:03:30;21.70;99.90
10468;DHT22;5281;48.878;9.394;2023-10-19T11:06:03;21.70;99.90
10468;DHT22;5281;48.878;9.394;2023-10-19T11:08:30;21.60;99.90
10468;DHT22;5281;48.878;9.394;2023-10-19T11:11:02;21.70;99.90
10468;DHT22;5281;48.878;9.394;2023-10-19T11:13:30;21.80;99.90
10468;DHT22;5281;48.878;9.394;2023-10-19T11:15:59;21.90;99.90
10468;DHT22;5281;48.878;9.394;2023-10-19T11:18:32;22.00;99.90
10468;DHT22;5281;48.878;9.394;2023-10-19T11:21:01;22.10;99.90
10468;DHT22;5281;48.878;9.394;2023-10-19T11:23:41;22.20;99.90
10468;DHT22;5281;48.878;9.394;2023-10-19T11:26:08;22.20;99.90
10468;DHT22;5281;48.878;9.394;2023-10-19T11:28:36;22.20;99.90
10468;DHT22;5281;48.878;9.394;2023-10-19T11:31:15;22.20;99.90
10468;DHT22;5281;48.878;9.394;2023-10-19T11:33:45;22.10;99.90
10468;DHT22;5281;48.878;9.394;2023-10-19T11:36:14;22.00;99.90
10468;DHT22;5281;48.878;9.394;2023-10-19T11:38:41;21.90;99.90
10468;DHT22;5281;48.878;9.394;2023-10-19T11:41:09;21.90;99.90
10468;DHT22;5281;48.878;9.394;2023-10-19T11:43:36;21.70;99.90
10468;DHT22;5281;48.878;9.394;2023-10-19T11:46:03;21.60;99.90
10468;DHT22;5281;48.878;9.394;2023-10-19T11:48:31;21.40;99.90
10468;DHT22;5281;48.878;9.394;2023-10-19T11:51:00;21.30;99.90
10468;DHT22;5281;48.878;9.394;2023-10-19T11:53:31;21.20;99.90
10468;DHT22;5281;48.878;9.394;2023-10-19T11:55:59;21.10;99.90
10468;DHT22;5281;48.878;9.394;2023-10-19T11:58:26;21.00;99.90
10468;DHT22;5281;48.878;9.394;2023-10-19T12:00:52;20.90;99.90
10468;DHT22;5281;48.878;9.394;2023-10-19T12:03:20;20.90;99.90
10468;DHT22;5281;48.878;9.394;2023-10-19T12:05:47;20.80;99.90
10468;DHT22;5281;48.878;9.394;2023-10-19T12:08:15;20.80;99.90
10468;DHT22;5281;48.878;9.394;2023-10-19T12:10:42;20.70;99.90
10468;DHT22;5281;48.878;9.394;2023-10-19T12:13:09;20.60;99.90
10468;DHT22;5281;48.878;9.394;2023-10-19T12:15:36;20.60;99.90
10468;DHT22;5281;48.878;9.394;2023-10-19T12:18:03;20.60;99.90
10468;DHT22;5281;48.878;9.394;2023-10-19T12:20:31;20.50;99.90
10468;DHT22;5281;48.878;9.394;2023-10-19T12:22:57;20.50;99.90
10468;DHT22;5281;48.878;9.394;2023-10-19T12:25:26;20.60;99.90
10468;DHT22;5281;48.878;9.394;2023-10-19T12:27:56;20.40;99.90
10468;DHT22;5281;48.878;9.394;2023-10-19T12:30:24;20.30;99.90
10468;DHT22;5281;48.878;9.394;2023-10-19T12:32:52;20.20;99.90
10468;DHT22;5281;48.878;9.394;2023-10-19T12:35:19;20.10;99.90
10468;DHT22;5281;48.878;9.394;2023-10-19T12:37:49;20.10;99.90
10468;DHT22;5281;48.878;9.394;2023-10-19T12:40:17;19.90;99.90
10468;DHT22;5281;48.878;9.394;2023-10-19T12:42:55;19.80;99.90
10468;DHT22;5281;48.878;9.394;2023-10-19T12:45:24;19.50;99.90
10468;DHT22;5281;48.878;9.394;2023-10-19T12:47:51;19.20;99.90
10468;DHT22;5281;48.878;9.394;2023-10-19T12:50:18;19.10;99.90
10468;DHT22;5281;48.878;9.394;2023-10-19T12:52:48;19.00;99.90
10468;DHT22;5281;48.878;9.394;2023-10-19T12:55:15;19.10;99.90
10468;DHT22;5281;48.878;9.394;2023-10-19T12:57:42;19.20;99.90
10468;DHT22;5281;48.878;9.394;2023-10-19T13:00:11;19.20;99.90
10468;DHT22;5281;48.878;9.394;2023-10-19T13:02:54;19.20;99.90
10468;DHT22;5281;48.878;9.394;2023-10-19T13:05:26;18.90;99.90
10468;DHT22;5281;48.878;9.394;2023-10-19T13:07:53;18.80;99.90
10468;DHT22;5281;48.878;9.394;2023-10-19T13:10:27;18.40;99.90
10468;DHT22;5281;48.878;9.394;2023-10-19T13:12:54;18.20;99.90
10468;DHT22;5281;48.878;9.394;2023-10-19T13:15:22;18.10;99.90
10468;DHT22;5281;48.878;9.394;2023-10-19T13:17:51;18.00;99.90
10468;DHT22;5281;48.878;9.394;2023-10-19T13:20:18;18.10;99.90
10468;DHT22;5281;48.878;9.394;2023-10-19T13:22:45;18.00;99.90
10468;DHT22;5281;48.878;9.394;2023-10-19T13:25:12;18.10;99.90
10468;DHT22;5281;48.878;9.394;2023-10-19T13:27:42;18.10;99.90
10468;DHT22;5281;48.878;9.394;2023-10-19T13:30:11;18.00;99.90
10468;DHT22;5281;48.878;9.394;2023-10-19T13:32:41;18.10;99.90
10468;DHT22;5281;48.878;9.394;2023-10-19T13:35:08;18.20;99.90
10468;DHT22;5281;48.878;9.394;2023-10-19T13:37:35;18.30;99.90
10468;DHT22;5281;48.878;9.394;2023-10-19T13:40:02;18.50;99.90
10468;DHT22;5281;48.878;9.394;2023-10-19T13:42:29;18.50;99.90
10468;DHT22;5281;48.878;9.394;2023-10-19T13:44:56;18.60;99.90
10468;DHT22;5281;48.878;9.394;2023-10-19T13:47:23;18.70;99.90
10468;DHT22;5281;48.878;9.394;2023-10-19T13:49:51;18.80;99.90
10468;DHT22;5281;48.878;9.394;2023-10-19T13:52:17;18.90;99.90
10468;DHT22;5281;48.878;9.394;2023-10-19T13:54:45;19.20;99.90
10468;DHT22;5281;48.878;9.394;2023-10-19T13:57:11;19.30;99.90
10468;DHT22;5281;48.878;9.394;2023-10-19T13:59:38;19.30;99.90
10468;DHT22;5281;48.878;9.394;2023-10-19T14:02:05;19.30;99.90
10468;DHT22;5281;48.878;9.394;2023-10-19T14:04:33;19.20;99.90
10468;DHT22;5281;48.878;9.394;2023-10-19T14:07:01;19.10;99.90
10468;DHT22;5281;48.878;9.394;2023-10-19T14:09:28;19.00;99.90
10468;DHT22;5281;48.878;9.394;2023-10-19T14:11:57;18.80;99.90
10468;DHT22;5281;48.878;9.394;2023-10-19T14:14:23;18.60;99.90
10468;DHT22;5281;48.878;9.394;2023-10-19T14:16:50;18.70;99.90
10468;DHT22;5281;48.878;9.394;2023-10-19T14:19:17;18.50;99.90
10468;DHT22;5281;48.878;9.394;2023-10-19T14:21:43;18.60;99.90
10468;DHT22;5281;48.878;9.394;2023-10-19T14:24:14;18.60;99.90
10468;DHT22;5281;48.878;9.394;2023-10-19T14:26:44;18.50;99.90
10468;DHT22;5281;48.878;9.394;2023-10-19T14:29:11;18.50;99.90
10468;DHT22;5281;48.878;9.394;2023-10-19T14:31:38;18.50;99.90
10468;DHT22;5281;48.878;9.394;2023-10-19T14:34:06;18.60;99.90
10468;DHT22;5281;48.878;9.394;2023-10-19T14:36:33;18.70;99.90
10468;DHT22;5281;48.878;9.394;2023-10-19T14:39:00;18.80;99.90
10468;DHT22;5281;48.878;9.394;2023-10-19T14:41:28;18.80;99.90
10468;DHT22;5281;48.878;9.394;2023-10-19T14:43:55;18.90;99.90
10468;DHT22;5281;48.878;9.394;2023-10-19T14:46:25;18.90;99.90
10468;DHT22;5281;48.878;9.394;2023-10-19T14:48:52;18.90;99.90
10468;DHT22;5281;48.878;9.394;2023-10-19T14:51:19;18.90;99.90
10468;DHT22;5281;48.878;9.394;2023-10-19T14:53:46;18.90;99.90
10468;DHT22;5281;48.878;9.394;2023-10-19T14:56:12;18.90;99.90
10468;DHT22;5281;48.878;9.394;2023-10-19T14:58:41;18.90;99.90
10468;DHT22;5281;48.878;9.394;2023-10-19T15:01:08;18.80;99.90
10468;DHT22;5281;48.878;9.394;2023-10-19T15:03:40;18.70;99.90
10468;DHT22;5281;48.878;9.394;2023-10-19T15:06:07;18.60;99.90
10468;DHT22;5281;48.878;9.394;2023-10-19T15:08:33;18.60;99.90
10468;DHT22;5281;48.878;9.394;2023-10-19T15:11:00;18.40;99.90
10468;DHT22;5281;48.878;9.394;2023-10-19T15:13:27;18.20;99.90
10468;DHT22;5281;48.878;9.394;2023-10-19T15:15:56;18.10;99.90
10468;DHT22;5281;48.878;9.394;2023-10-19T15:18:23;18.00;99.90
10468;DHT22;5281;48.878;9.394;2023-10-19T15:20:49;17.90;99.90
10468;DHT22;5281;48.878;9.394;2023-10-19T15:23:16;17.70;99.90
10468;DHT22;5281;48.878;9.394;2023-10-19T15:25:43;17.60;99.90
10468;DHT22;5281;48.878;9.394;2023-10-19T15:28:09;17.60;99.90
10468;DHT22;5281;48.878;9.394;2023-10-19T15:30:36;17.70;99.90
10468;DHT22;5281;48.878;9.394;2023-10-19T15:33:04;17.80;99.90
10468;DHT22;5281;48.878;9.394;2023-10-19T15:35:32;17.70;99.90
10468;DHT22;5281;48.878;9.394;2023-10-19T15:38:02;17.70;99.90
10468;DHT22;5281;48.878;9.394;2023-10-19T15:40:29;17.50;99.90
10468;DHT22;5281;48.878;9.394;2023-10-19T15:42:56;17.50;99.90
10468;DHT22;5281;48.878;9.394;2023-10-19T15:45:24;17.50;99.90
10468;DHT22;5281;48.878;9.394;2023-10-19T15:47:53;17.40;99.90
10468;DHT22;5281;48.878;9.394;2023-10-19T15:50:21;17.30;99.90
10468;DHT22;5281;48.878;9.394;2023-10-19T15:52:48;17.20;99.90
10468;DHT22;5281;48.878;9.394;2023-10-19T15:55:16;17.20;99.90